createdAt,value
2022-12-25T00:01:12.983Z,100528.62
2022-12-25T00:03:48.429Z,100539.45
2022-12-25T00:06:16.405Z,100548.65
2022-12-25T00:08:44.212Z,100555.11
2022-12-25T00:11:17.646Z,100560.23
2022-12-25T00:13:46.536Z,100564.30
2022-12-25T00:16:20.204Z,100565.79
2022-12-25T00:18:48.613Z,100561.20
2022-12-25T00:21:17.070Z,100564.08
2022-12-25T00:23:44.781Z,100567.42
2022-12-25T00:26:15.926Z,100568.31
2022-12-25T00:28:43.684Z,100571.60
2022-12-25T00:31:15.529Z,100573.92
2022-12-25T00:33:45.666Z,100575.92
2022-12-25T00:36:15.578Z,100580.89
2022-12-25T00:38:43.557Z,100593.67
2022-12-25T00:41:14.400Z,100601.75
2022-12-25T00:43:42.326Z,100605.11
2022-12-25T00:46:12.741Z,100610.23
2022-12-25T00:48:41.386Z,100613.05
2022-12-25T00:51:11.768Z,100615.34
2022-12-25T00:53:39.451Z,100613.05
2022-12-25T00:56:07.843Z,100619.95
2022-12-25T00:58:35.757Z,100630.93
2022-12-25T01:01:04.186Z,100637.31
2022-12-25T01:03:32.022Z,100641.25
2022-12-25T01:06:06.652Z,100641.15
2022-12-25T01:08:37.360Z,100647.52
2022-12-25T01:11:08.993Z,100653.85
2022-12-25T01:13:37.731Z,100652.73
2022-12-25T01:16:06.932Z,100648.54
2022-12-25T01:18:34.580Z,100643.73
2022-12-25T01:21:13.207Z,100635.80
2022-12-25T01:23:40.883Z,100633.09
2022-12-25T01:26:11.476Z,100635.99
2022-12-25T01:28:39.856Z,100633.31
2022-12-25T01:31:13.668Z,100632.73
2022-12-25T01:33:43.128Z,100633.78
2022-12-25T01:36:19.800Z,100633.42
2022-12-25T01:38:48.921Z,100644.35
2022-12-25T01:41:19.371Z,100652.34
2022-12-25T01:44:28.105Z,100655.16
2022-12-25T01:46:55.791Z,100657.58
2022-12-25T01:49:25.543Z,100660.74
2022-12-25T01:51:55.764Z,100653.98
2022-12-25T01:54:28.590Z,100654.45
2022-12-25T01:56:59.725Z,100654.66
2022-12-25T01:59:28.263Z,100658.67
2022-12-25T02:01:57.021Z,100646.48
2022-12-25T02:04:40.232Z,100644.80
2022-12-25T02:07:15.439Z,100641.96
2022-12-25T02:09:45.931Z,100640.27
2022-12-25T02:12:20.244Z,100636.96
2022-12-25T02:14:50.789Z,100636.13
2022-12-25T02:17:38.397Z,100640.36
2022-12-25T02:20:48.090Z,100642.55
2022-12-25T02:23:45.878Z,100644.57
2022-12-25T02:26:51.831Z,100635.66
2022-12-25T02:29:31.353Z,100631.55
2022-12-25T02:32:18.288Z,100627.66
2022-12-25T02:34:52.784Z,100635.83
2022-12-25T02:37:37.962Z,100639.95
2022-12-25T02:40:17.595Z,100643.88
2022-12-25T02:43:17.871Z,100645.79
2022-12-25T02:46:14.091Z,100643.80
2022-12-25T02:49:05.775Z,100648.55
2022-12-25T02:51:57.509Z,100651.15
2022-12-25T02:54:49.991Z,100650.49
2022-12-25T02:57:39.989Z,100651.02
2022-12-25T03:00:28.136Z,100648.88
2022-12-25T03:06:22.275Z,100646.21
2022-12-25T03:08:52.830Z,100646.87
2022-12-25T03:11:32.756Z,100643.70
2022-12-25T03:14:24.235Z,100645.45
2022-12-25T03:16:56.922Z,100647.64
2022-12-25T03:19:47.850Z,100656.94
2022-12-25T03:22:41.933Z,100661.52
2022-12-25T03:25:28.850Z,100663.26
2022-12-25T03:27:57.698Z,100663.01
2022-12-25T03:30:55.258Z,100660.02
2022-12-25T03:34:01.868Z,100658.04
2022-12-25T03:36:41.025Z,100662.71
2022-12-25T03:40:01.515Z,100661.89
2022-12-25T03:42:56.361Z,100657.71
2022-12-25T03:45:59.143Z,100655.77
2022-12-25T03:48:49.960Z,100659.98
2022-12-25T03:51:41.135Z,100664.77
2022-12-25T03:54:30.000Z,100673.36
2022-12-25T03:57:16.548Z,100677.21
2022-12-25T04:00:03.088Z,100682.83
2022-12-25T04:03:10.252Z,100677.73
2022-12-25T04:05:56.505Z,100672.39
2022-12-25T04:08:42.653Z,100673.84
2022-12-25T04:11:29.066Z,100684.15
2022-12-25T04:14:15.524Z,100678.35
2022-12-25T04:17:01.648Z,100663.75
2022-12-25T04:19:47.611Z,100672.48
2022-12-25T04:22:33.930Z,100670.80
2022-12-25T04:25:20.342Z,100681.88
2022-12-25T04:28:06.532Z,100683.84
2022-12-25T04:30:53.026Z,100677.67
2022-12-25T04:33:39.496Z,100679.31
2022-12-25T04:36:10.921Z,100680.86
2022-12-25T04:38:40.309Z,100687.41
2022-12-25T04:41:13.540Z,100687.14
2022-12-25T04:43:41.267Z,100689.61
2022-12-25T04:46:09.043Z,100693.08
2022-12-25T04:54:52.423Z,100708.06
2022-12-25T04:57:20.177Z,100707.02
2022-12-25T04:59:47.917Z,100695.28
2022-12-25T05:02:15.693Z,100691.05
2022-12-25T05:04:43.477Z,100691.67
2022-12-25T05:07:11.141Z,100679.85
2022-12-25T05:09:41.851Z,100675.94
2022-12-25T05:12:10.193Z,100678.57
2022-12-25T05:14:39.191Z,100683.59
2022-12-25T05:17:08.071Z,100692.60
2022-12-25T05:19:35.762Z,100692.52
2022-12-25T05:22:03.456Z,100703.48
2022-12-25T05:24:31.096Z,100705.89
2022-12-25T05:26:58.786Z,100707.47
2022-12-25T05:29:26.538Z,100712.75
2022-12-25T05:31:54.165Z,100714.62
2022-12-25T05:34:21.896Z,100714.83
2022-12-25T05:36:49.558Z,100717.98
2022-12-25T05:39:17.208Z,100719.13
2022-12-25T05:41:44.845Z,100725.08
2022-12-25T05:44:12.543Z,100725.03
2022-12-25T05:46:40.311Z,100728.19
2022-12-25T05:49:08.134Z,100732.00
2022-12-25T05:51:35.768Z,100736.15
2022-12-25T05:54:03.542Z,100741.64
2022-12-25T05:56:31.264Z,100744.48
2022-12-25T05:58:58.884Z,100745.02
2022-12-25T06:01:28.125Z,100744.34
2022-12-25T06:03:56.665Z,100747.33
2022-12-25T06:06:24.307Z,100751.26
2022-12-25T06:08:54.795Z,100756.83
2022-12-25T06:11:22.789Z,100761.41
2022-12-25T06:13:53.405Z,100769.65
2022-12-25T06:16:21.509Z,100767.23
2022-12-25T06:18:52.147Z,100774.33
2022-12-25T06:21:20.036Z,100781.27
2022-12-25T06:23:47.686Z,100787.84
2022-12-25T06:26:18.204Z,100794.20
2022-12-25T06:28:46.448Z,100796.30
2022-12-25T06:31:17.999Z,100801.43
2022-12-25T06:33:45.969Z,100801.80
2022-12-25T06:36:16.747Z,100807.51
2022-12-25T06:38:44.519Z,100812.32
2022-12-25T06:41:15.059Z,100816.60
2022-12-25T06:43:42.770Z,100824.02
2022-12-25T06:46:12.231Z,100829.59
2022-12-25T06:48:41.319Z,100834.39
2022-12-25T06:51:08.943Z,100841.29
2022-12-25T06:53:40.185Z,100839.79
2022-12-25T06:56:15.445Z,100845.91
2022-12-25T06:58:44.153Z,100844.27
2022-12-25T07:01:34.646Z,100844.89
2022-12-25T07:04:11.306Z,100848.51
2022-12-25T07:06:38.889Z,100855.56
2022-12-25T07:09:06.473Z,100861.63
2022-12-25T07:11:34.088Z,100870.66
2022-12-25T07:14:01.871Z,100873.36
2022-12-25T07:16:29.813Z,100873.48
2022-12-25T07:19:00.725Z,100876.77
2022-12-25T07:21:28.700Z,100877.92
2022-12-25T07:23:56.340Z,100880.94
2022-12-25T07:26:24.075Z,100873.83
2022-12-25T07:28:51.731Z,100882.09
2022-12-25T07:31:19.455Z,100889.29
2022-12-25T07:33:47.751Z,100895.05
2022-12-25T07:36:15.585Z,100898.86
2022-12-25T07:38:43.317Z,100899.52
2022-12-25T07:41:12.828Z,100908.20
2022-12-25T07:43:40.683Z,100908.95
2022-12-25T07:46:09.467Z,100914.87
2022-12-25T07:48:37.216Z,100914.52
2022-12-25T07:51:07.406Z,100914.67
2022-12-25T07:53:36.335Z,100912.43
2022-12-25T07:56:12.022Z,100908.73
2022-12-25T07:58:40.152Z,100917.04
2022-12-25T08:01:11.941Z,100930.53
2022-12-25T08:03:40.081Z,100932.07
2022-12-25T08:06:10.433Z,100936.90
2022-12-25T08:08:40.048Z,100940.15
2022-12-25T08:11:11.032Z,100948.38
2022-12-25T08:13:39.590Z,100950.80
2022-12-25T08:16:09.948Z,100955.58
2022-12-25T08:18:38.770Z,100956.45
2022-12-25T08:21:12.434Z,100957.23
2022-12-25T08:23:43.150Z,100960.52
2022-12-25T08:26:13.859Z,100960.23
2022-12-25T08:28:41.587Z,100963.27
2022-12-25T08:31:15.478Z,100967.69
2022-12-25T08:33:43.637Z,100969.07
2022-12-25T08:36:12.252Z,100976.73
2022-12-25T08:38:40.685Z,100973.58
2022-12-25T08:41:09.721Z,100976.63
2022-12-25T08:43:37.943Z,100978.89
2022-12-25T08:46:06.229Z,100986.20
2022-12-25T08:48:34.605Z,100986.13
2022-12-25T08:51:03.332Z,100986.41
2022-12-25T08:53:30.955Z,100991.98
2022-12-25T08:56:05.793Z,100996.86
2022-12-25T08:58:33.532Z,100998.74
2022-12-25T09:01:01.469Z,100991.32
2022-12-25T09:03:32.124Z,100993.86
2022-12-25T09:06:05.769Z,100998.95
2022-12-25T09:08:34.465Z,100997.86
2022-12-25T09:11:07.346Z,101004.30
2022-12-25T09:13:35.828Z,101002.37
2022-12-25T09:16:08.816Z,101004.05
2022-12-25T09:18:36.517Z,101007.05
2022-12-25T09:21:07.156Z,101006.77
2022-12-25T09:23:35.129Z,101013.55
2022-12-25T09:26:05.216Z,101018.04
2022-12-25T09:28:33.258Z,101021.05
2022-12-25T09:31:01.346Z,101023.99
2022-12-25T09:33:29.009Z,101021.55
2022-12-25T09:36:15.109Z,101023.21
2022-12-25T09:38:43.061Z,101018.36
2022-12-25T09:41:17.039Z,101015.84
2022-12-25T09:43:52.759Z,101015.09
2022-12-25T09:46:25.122Z,101018.10
2022-12-25T09:49:06.307Z,101019.93
2022-12-25T09:51:37.798Z,101019.67
2022-12-25T09:54:34.944Z,101018.83
2022-12-25T09:57:03.648Z,101009.73
2022-12-25T09:59:31.415Z,101007.50
2022-12-25T10:02:23.929Z,101011.76
2022-12-25T10:05:18.425Z,101008.37
2022-12-25T10:08:09.434Z,101002.26
2022-12-25T10:10:56.527Z,101003.84
2022-12-25T10:13:50.695Z,101001.66
2022-12-25T10:16:30.241Z,101001.00
2022-12-25T10:19:31.591Z,100999.41
2022-12-25T10:22:03.939Z,100995.03
2022-12-25T10:24:44.973Z,100996.88
2022-12-25T10:27:28.841Z,100999.63
2022-12-25T10:29:56.666Z,101003.02
2022-12-25T10:32:24.421Z,101000.96
2022-12-25T10:34:52.110Z,101004.50
2022-12-25T10:37:20.073Z,101006.67
2022-12-25T10:39:47.884Z,101007.27
2022-12-25T10:42:26.453Z,101015.52
2022-12-25T10:44:56.773Z,101016.02
2022-12-25T10:47:31.149Z,101023.95
2022-12-25T10:50:00.193Z,101019.23
2022-12-25T10:52:28.960Z,101015.37
2022-12-25T10:54:56.638Z,101018.00
2022-12-25T10:57:26.039Z,101016.19
2022-12-25T10:59:56.597Z,101009.83
2022-12-25T11:02:40.348Z,101006.66
2022-12-25T11:05:14.110Z,101005.70
2022-12-25T11:07:51.245Z,101009.01
2022-12-25T11:10:43.795Z,101008.02
2022-12-25T11:13:20.915Z,101007.20
2022-12-25T11:15:49.705Z,101002.96
2022-12-25T11:18:23.006Z,101008.22
2022-12-25T11:20:58.238Z,101010.04
2022-12-25T11:23:28.717Z,101004.48
2022-12-25T11:26:04.207Z,101004.33
2022-12-25T11:28:35.044Z,100998.98
2022-12-25T11:31:12.914Z,100999.70
2022-12-25T11:33:57.130Z,100995.52
2022-12-25T11:36:45.483Z,100989.23
2022-12-25T11:39:27.060Z,100989.16
2022-12-25T11:42:13.404Z,100991.29
2022-12-25T11:44:45.934Z,100994.67
2022-12-25T11:47:26.620Z,100997.11
2022-12-25T11:50:07.215Z,100999.15
2022-12-25T11:52:40.683Z,101002.84
2022-12-25T11:55:19.521Z,101005.96
2022-12-25T11:57:53.598Z,101005.49
2022-12-25T12:00:21.882Z,101009.88
2022-12-25T12:03:06.003Z,101007.25
2022-12-25T12:05:50.479Z,101007.52
2022-12-25T12:08:18.132Z,101007.70
2022-12-25T12:11:16.341Z,101005.63
2022-12-25T12:14:02.378Z,101006.66
2022-12-25T12:16:30.364Z,101009.92
2022-12-25T12:18:58.160Z,101012.73
2022-12-25T12:21:30.399Z,101017.85
2022-12-25T12:24:06.808Z,101021.36
2022-12-25T12:26:38.103Z,101018.52
2022-12-25T12:29:19.263Z,101015.86
2022-12-25T12:31:50.068Z,101016.29
2022-12-25T12:34:26.142Z,101016.53
2022-12-25T12:37:18.641Z,101016.39
2022-12-25T12:39:54.129Z,101017.79
2022-12-25T12:42:35.836Z,101017.86
2022-12-25T12:45:15.489Z,101020.75
2022-12-25T12:47:49.014Z,101014.31
2022-12-25T12:50:41.868Z,101013.45
2022-12-25T12:53:21.611Z,101013.11
2022-12-25T12:55:50.152Z,101017.90
2022-12-25T12:58:33.657Z,101015.34
2022-12-25T13:01:19.505Z,101012.51
2022-12-25T13:04:18.027Z,101014.50
2022-12-25T13:07:13.147Z,101021.36
2022-12-25T13:10:08.562Z,101013.23
2022-12-25T13:12:36.852Z,101014.35
2022-12-25T13:15:12.968Z,101014.79
2022-12-25T13:17:45.158Z,101015.04
2022-12-25T13:20:23.759Z,101015.26
2022-12-25T13:22:53.092Z,101014.39
2022-12-25T13:25:22.758Z,101018.48
2022-12-25T13:27:57.380Z,101028.95
2022-12-25T13:30:25.904Z,101029.50
2022-12-25T13:32:53.714Z,101035.52
2022-12-25T13:35:23.285Z,101040.21
2022-12-25T13:37:51.017Z,101037.73
2022-12-25T13:40:26.235Z,101030.77
2022-12-25T13:43:00.484Z,101034.17
2022-12-25T13:45:30.584Z,101037.31
2022-12-25T13:47:58.672Z,101031.66
2022-12-25T13:50:27.773Z,101033.46
2022-12-25T13:52:58.397Z,101036.02
2022-12-25T13:55:28.988Z,101040.14
2022-12-25T13:57:59.219Z,101036.63
2022-12-25T14:00:46.519Z,101041.04
2022-12-25T14:03:22.032Z,101052.21
2022-12-25T14:06:01.745Z,101053.43
2022-12-25T14:08:34.946Z,101058.05
2022-12-25T14:11:05.723Z,101069.69
2022-12-25T14:13:38.059Z,101067.05
2022-12-25T14:16:07.723Z,101064.31
2022-12-25T14:18:35.806Z,101070.07
2022-12-25T14:21:11.911Z,101065.14
2022-12-25T14:23:42.018Z,101059.80
2022-12-25T14:26:20.716Z,101062.52
2022-12-25T14:28:54.314Z,101066.83
2022-12-25T14:31:24.353Z,101062.52
2022-12-25T14:33:53.863Z,101061.71
2022-12-25T14:36:21.946Z,101065.66
2022-12-25T14:39:00.404Z,101063.23
2022-12-25T14:41:42.105Z,101055.26
2022-12-25T14:44:33.606Z,101054.36
2022-12-25T14:47:10.372Z,101059.31
2022-12-25T14:49:38.278Z,101063.00
2022-12-25T14:52:18.412Z,101059.63
2022-12-25T14:55:08.072Z,101066.23
2022-12-25T14:57:40.368Z,101069.13
2022-12-25T15:00:18.870Z,101075.34
2022-12-25T15:02:48.202Z,101078.23
2022-12-25T15:05:26.884Z,101077.66
2022-12-25T15:08:00.718Z,101083.81
2022-12-25T15:10:58.909Z,101087.34
2022-12-25T15:13:20.049Z,101087.63
2022-12-25T15:15:56.554Z,101083.95
2022-12-25T15:18:27.712Z,101074.89
2022-12-25T15:20:56.752Z,101066.59
2022-12-25T15:23:25.521Z,101067.84
2022-12-25T15:25:53.258Z,101076.25
2022-12-25T15:28:21.027Z,101077.27
2022-12-25T15:30:50.038Z,101079.20
2022-12-25T15:33:19.105Z,101074.83
2022-12-25T15:35:46.909Z,101073.80
2022-12-25T15:38:14.594Z,101078.79
2022-12-25T15:40:42.970Z,101084.69
2022-12-25T15:46:05.573Z,101096.41
2022-12-25T15:48:33.576Z,101091.25
2022-12-25T15:51:01.205Z,101085.52
2022-12-25T15:53:28.909Z,101087.76
2022-12-25T15:55:56.861Z,101087.76
2022-12-25T15:58:24.520Z,101089.26
2022-12-25T16:00:52.154Z,101086.59
2022-12-25T16:03:19.804Z,101089.17
2022-12-25T16:05:47.575Z,101087.52
2022-12-25T16:08:15.226Z,101085.81
2022-12-25T16:10:42.925Z,101083.27
2022-12-25T16:13:10.542Z,101080.55
2022-12-25T16:15:38.278Z,101078.69
2022-12-25T16:18:06.563Z,101078.62
2022-12-25T16:20:34.653Z,101085.46
2022-12-25T16:23:02.225Z,101093.17
2022-12-25T16:25:29.951Z,101090.73
2022-12-25T16:27:57.541Z,101090.79
2022-12-25T16:30:25.307Z,101095.14
2022-12-25T16:32:53.573Z,101096.14
2022-12-25T16:35:21.201Z,101098.66
2022-12-25T16:37:49.041Z,101095.75
2022-12-25T16:40:17.754Z,101092.87
2022-12-25T16:42:45.389Z,101094.84
2022-12-25T16:45:13.473Z,101095.91
2022-12-25T16:47:41.308Z,101094.66
2022-12-25T16:50:09.772Z,101089.79
2022-12-25T16:52:37.547Z,101081.92
2022-12-25T16:55:05.864Z,101074.52
2022-12-25T16:57:34.110Z,101072.00
2022-12-25T17:00:01.708Z,101073.02
2022-12-25T17:02:29.816Z,101078.43
2022-12-25T17:04:57.759Z,101080.86
2022-12-25T17:07:25.428Z,101078.10
2022-12-25T17:09:53.146Z,101079.12
2022-12-25T17:12:20.895Z,101075.25
2022-12-25T17:14:48.528Z,101076.27
2022-12-25T17:17:16.581Z,101069.65
2022-12-25T17:19:44.463Z,101065.77
2022-12-25T17:22:12.167Z,101067.61
2022-12-25T17:24:41.416Z,101061.31
2022-12-25T17:27:09.561Z,101059.18
2022-12-25T17:29:39.750Z,101062.67
2022-12-25T17:32:08.272Z,101055.69
2022-12-25T17:34:37.040Z,101053.81
2022-12-25T17:37:05.829Z,101056.05
2022-12-25T17:39:33.654Z,101058.30
2022-12-25T17:42:01.321Z,101052.05
2022-12-25T17:44:29.039Z,101045.00
2022-12-25T17:46:56.774Z,101038.32
2022-12-25T17:49:24.553Z,101038.74
2022-12-25T17:51:53.988Z,101034.86
2022-12-25T17:54:21.854Z,101038.08
2022-12-25T17:56:49.581Z,101029.38
2022-12-25T17:59:18.792Z,101025.94
2022-12-25T18:01:47.247Z,101027.02
2022-12-25T18:04:15.303Z,101029.58
2022-12-25T18:06:43.086Z,101035.36
2022-12-25T18:09:11.542Z,101038.79
2022-12-25T18:11:41.381Z,101043.34
2022-12-25T18:14:13.480Z,101046.95
2022-12-25T18:16:44.748Z,101049.97
2022-12-25T18:19:14.144Z,101054.31
2022-12-25T18:21:41.891Z,101056.38
2022-12-25T18:24:10.146Z,101059.39
2022-12-25T18:26:38.043Z,101058.58
2022-12-25T18:29:07.003Z,101057.95
2022-12-25T18:31:35.247Z,101053.73
2022-12-25T18:34:04.265Z,101053.76
2022-12-25T18:36:32.464Z,101049.88
2022-12-25T18:39:00.149Z,101047.17
2022-12-25T18:41:28.755Z,101047.98
2022-12-25T18:43:56.944Z,101045.39
2022-12-25T18:46:27.253Z,101043.03
2022-12-25T18:48:56.988Z,101044.82
2022-12-25T18:51:27.534Z,101045.36
2022-12-25T18:53:59.010Z,101049.66
2022-12-25T18:56:26.809Z,101037.74
2022-12-25T18:58:54.403Z,101034.45
2022-12-25T19:01:24.085Z,101026.86
2022-12-25T19:03:57.193Z,101022.56
2022-12-25T19:06:33.219Z,101013.05
2022-12-25T19:09:08.524Z,101011.99
2022-12-25T19:18:06.819Z,101009.27
2022-12-25T19:20:34.477Z,101010.27
2022-12-25T19:23:02.135Z,101008.91
2022-12-25T19:25:29.745Z,101012.42
2022-12-25T19:27:57.362Z,101009.96
2022-12-25T19:30:24.969Z,101005.00
2022-12-25T19:32:52.629Z,101003.70
2022-12-25T19:35:20.313Z,101011.03
2022-12-25T19:37:47.994Z,101010.99
2022-12-25T19:40:15.723Z,101003.73
2022-12-25T19:42:43.392Z,100998.17
2022-12-25T19:45:11.300Z,101001.73
2022-12-25T19:47:38.999Z,101000.65
2022-12-25T19:50:07.069Z,100996.98
2022-12-25T19:52:35.004Z,100992.20
2022-12-25T19:55:02.636Z,100996.36
2022-12-25T19:57:30.260Z,100996.92
2022-12-25T19:59:57.918Z,100995.13
2022-12-25T20:02:25.641Z,100998.38
2022-12-25T20:04:53.399Z,100996.05
2022-12-25T20:07:21.037Z,100996.00
2022-12-25T20:09:48.715Z,100996.16
2022-12-25T20:12:16.598Z,100990.45
2022-12-25T20:14:44.376Z,100986.86
2022-12-25T20:17:16.002Z,100988.42
2022-12-25T20:19:43.999Z,100983.98
2022-12-25T20:22:11.859Z,100984.29
2022-12-25T20:24:39.656Z,100977.91
2022-12-25T20:37:32.609Z,100955.45
2022-12-25T20:40:00.238Z,100955.39
2022-12-25T20:42:27.860Z,100961.00
2022-12-25T20:44:55.493Z,100960.48
2022-12-25T20:47:23.148Z,100956.11
2022-12-25T20:49:50.875Z,100944.48
2022-12-25T20:52:18.464Z,100937.93
2022-12-25T20:54:47.655Z,100935.68
2022-12-25T20:57:15.259Z,100930.75
2022-12-25T20:59:43.499Z,100929.67
2022-12-25T21:02:35.681Z,100934.48
2022-12-25T21:04:59.820Z,100940.31
2022-12-25T21:07:27.629Z,100937.77
2022-12-25T21:09:55.279Z,100933.91
2022-12-25T21:12:22.908Z,100927.30
2022-12-25T21:14:50.806Z,100920.30
2022-12-25T21:17:18.584Z,100917.76
2022-12-25T21:19:46.523Z,100917.91
2022-12-25T21:22:14.754Z,100918.45
2022-12-25T21:24:42.559Z,100918.67
2022-12-25T21:27:10.248Z,100916.37
2022-12-25T21:29:37.999Z,100912.39
2022-12-25T21:32:24.675Z,100911.80
2022-12-25T21:34:52.448Z,100915.70
2022-12-25T21:37:20.180Z,100917.48
2022-12-25T21:39:51.499Z,100918.23
2022-12-25T21:42:19.221Z,100912.81
2022-12-25T21:44:48.108Z,100909.66
2022-12-25T21:47:16.018Z,100905.47
2022-12-25T21:50:02.334Z,100895.80
2022-12-25T21:52:29.992Z,100891.17
2022-12-25T21:54:57.588Z,100894.76
2022-12-25T21:57:25.290Z,100890.04
2022-12-25T21:59:52.906Z,100888.63
2022-12-25T22:02:20.967Z,100878.34
2022-12-25T22:04:48.809Z,100874.59
2022-12-25T22:07:19.726Z,100869.46
2022-12-25T22:09:49.401Z,100869.64
2022-12-25T22:12:38.458Z,100868.89
2022-12-25T22:15:09.654Z,100865.27
2022-12-25T22:17:58.002Z,100864.51
2022-12-25T22:20:34.645Z,100862.33
2022-12-25T22:23:03.809Z,100862.94
2022-12-25T22:25:31.671Z,100860.60
2022-12-25T22:27:59.657Z,100861.39
2022-12-25T22:30:29.431Z,100847.41
2022-12-25T22:48:59.604Z,100831.90
2022-12-25T22:51:27.333Z,100821.36
2022-12-25T22:53:58.786Z,100821.52
2022-12-25T22:56:31.104Z,100817.43
2022-12-25T22:58:58.786Z,100807.54
2022-12-25T23:01:27.575Z,100792.63
2022-12-25T23:03:55.839Z,100781.33
2022-12-25T23:06:23.570Z,100778.08
2022-12-25T23:08:51.197Z,100776.11
2022-12-25T23:11:19.041Z,100774.09
2022-12-25T23:14:05.222Z,100763.77
2022-12-25T23:16:33.257Z,100760.04
2022-12-25T23:19:19.831Z,100749.63
2022-12-25T23:22:05.945Z,100748.49
2022-12-25T23:24:52.502Z,100760.59
2022-12-25T23:27:20.176Z,100767.73
2022-12-25T23:29:47.802Z,100767.68
2022-12-25T23:32:22.581Z,100772.82
2022-12-25T23:34:50.399Z,100779.20
2022-12-25T23:37:18.791Z,100778.33
2022-12-25T23:39:46.906Z,100773.02
2022-12-25T23:42:14.494Z,100767.64
2022-12-25T23:44:42.069Z,100766.02
2022-12-25T23:47:10.224Z,100768.30
2022-12-25T23:49:38.035Z,100767.39
2022-12-25T23:52:05.918Z,100764.84
2022-12-25T23:54:33.829Z,100750.84
2022-12-25T23:57:01.497Z,100745.70
2022-12-25T23:59:31.061Z,100747.46
